createdAt,value
2022-11-02T00:05:44.514Z,13.94
2022-11-02T00:15:44.591Z,14.02
2022-11-02T00:25:44.536Z,14.10
2022-11-02T00:35:44.549Z,14.12
2022-11-02T00:45:44.629Z,14.05
2022-11-02T00:55:44.677Z,13.97
2022-11-02T01:05:44.693Z,13.93
2022-11-02T01:15:46.715Z,13.90
2022-11-02T01:25:46.657Z,13.77
2022-11-02T01:35:46.606Z,13.58
2022-11-02T01:45:46.796Z,13.47
2022-11-02T01:55:47.563Z,13.49
2022-11-02T02:05:48.649Z,13.52
2022-11-02T02:15:48.799Z,13.53
2022-11-02T02:25:49.491Z,13.52
2022-11-02T02:35:48.723Z,13.51
2022-11-02T02:45:48.848Z,13.51
2022-11-02T02:55:48.732Z,13.43
2022-11-02T03:05:48.832Z,13.19
2022-11-02T03:15:48.868Z,12.95
2022-11-02T03:25:49.181Z,12.78
2022-11-02T03:35:49.840Z,12.72
2022-11-02T03:45:50.407Z,12.85
2022-11-02T03:55:50.036Z,13.07
2022-11-02T04:05:51.726Z,13.19
2022-11-02T04:15:51.963Z,13.17
2022-11-02T04:25:53.756Z,13.06
2022-11-02T04:35:53.467Z,13.07
2022-11-02T04:45:53.754Z,13.11
2022-11-02T04:55:53.108Z,13.12
2022-11-02T05:05:53.065Z,13.08
2022-11-02T05:15:53.203Z,13.09
2022-11-02T05:25:53.208Z,13.22
2022-11-02T05:35:53.139Z,13.35
2022-11-02T05:45:52.990Z,13.42
2022-11-02T05:55:52.985Z,13.48
2022-11-02T06:05:53.045Z,13.52
2022-11-02T06:15:53.003Z,13.53
2022-11-02T06:25:53.077Z,13.53
2022-11-02T06:35:53.060Z,13.46
2022-11-02T06:45:53.008Z,13.39
2022-11-02T06:55:53.068Z,13.42
2022-11-02T07:05:55.400Z,13.56
2022-11-02T07:15:55.078Z,13.75
2022-11-02T07:25:55.157Z,13.95
2022-11-02T07:35:55.278Z,14.24
2022-11-02T07:45:58.403Z,14.64
2022-11-02T07:55:58.092Z,14.87
2022-11-02T08:05:58.127Z,14.91
2022-11-02T08:15:58.155Z,14.95
2022-11-02T08:25:58.223Z,14.89
2022-11-02T08:35:58.187Z,14.81
2022-11-02T08:46:14.354Z,14.84
2022-11-02T08:55:59.313Z,15.79
2022-11-02T09:05:59.237Z,17.90
2022-11-02T09:15:59.203Z,19.21
2022-11-02T09:25:59.226Z,19.17
2022-11-02T09:35:59.345Z,18.89
2022-11-02T09:45:59.322Z,18.58
2022-11-02T09:55:59.288Z,18.22
2022-11-02T10:05:59.378Z,18.03
2022-11-02T10:15:59.281Z,17.89
2022-11-02T10:25:59.419Z,17.56
2022-11-02T10:46:00.454Z,16.79
2022-11-02T10:56:00.307Z,16.56
2022-11-02T11:06:00.405Z,16.41
2022-11-02T11:16:00.490Z,16.30
2022-11-02T11:26:00.387Z,16.25
2022-11-02T11:36:00.415Z,16.49
2022-11-02T11:46:05.222Z,17.17
2022-11-02T11:56:02.466Z,17.57
2022-11-02T12:06:02.436Z,17.39
2022-11-02T12:16:02.424Z,17.12
2022-11-02T12:26:05.014Z,17.10
2022-11-02T12:36:03.458Z,17.34
2022-11-02T12:46:03.487Z,17.47
2022-11-02T12:56:03.538Z,17.33
2022-11-02T13:06:03.615Z,17.15
2022-11-02T13:16:03.583Z,16.92
2022-11-02T13:26:03.657Z,16.89
2022-11-02T13:36:03.634Z,17.15
2022-11-02T13:46:03.596Z,17.59
2022-11-02T13:56:03.663Z,17.95
2022-11-02T14:06:03.653Z,18.14
2022-11-02T14:16:03.710Z,17.99
2022-11-02T14:26:03.683Z,17.67
2022-11-02T14:36:03.755Z,17.31
2022-11-02T14:46:06.654Z,16.90
2022-11-02T14:56:05.745Z,16.48
2022-11-02T15:06:05.903Z,16.05
2022-11-02T15:16:05.767Z,15.59
2022-11-02T15:26:05.746Z,15.10
2022-11-02T15:36:05.821Z,14.56
2022-11-02T15:46:09.211Z,14.06
2022-11-02T15:56:06.787Z,13.63
2022-11-02T16:06:06.713Z,13.28
2022-11-02T16:16:06.825Z,13.04
2022-11-02T16:26:06.787Z,12.92
2022-11-02T16:36:06.785Z,12.81
2022-11-02T16:46:06.823Z,12.71
2022-11-02T16:56:06.905Z,12.65
2022-11-02T17:06:06.802Z,12.58
2022-11-02T17:16:06.891Z,12.49
2022-11-02T17:26:06.842Z,12.37
2022-11-02T17:36:06.874Z,12.22
2022-11-02T17:46:06.879Z,12.12
2022-11-02T17:56:06.916Z,12.03
2022-11-02T18:06:06.894Z,11.92
2022-11-02T18:16:06.909Z,11.82
2022-11-02T18:26:06.911Z,11.70
2022-11-02T18:36:06.991Z,11.59
2022-11-02T18:46:07.091Z,11.54
2022-11-02T18:56:07.030Z,11.54
2022-11-02T19:06:06.995Z,11.54
2022-11-02T19:16:07.092Z,11.55
2022-11-02T19:26:07.042Z,11.58
2022-11-02T19:36:07.032Z,11.58
2022-11-02T19:46:07.093Z,11.56
2022-11-02T19:56:07.061Z,11.54
2022-11-02T20:06:07.118Z,11.52
2022-11-02T20:16:12.223Z,11.48
2022-11-02T20:26:12.081Z,11.41
2022-11-02T20:36:12.152Z,11.34
2022-11-02T20:56:13.089Z,11.31
2022-11-02T21:06:13.198Z,11.34
2022-11-02T21:16:13.133Z,11.36
2022-11-02T21:26:13.122Z,11.39
2022-11-02T21:36:13.183Z,11.43
2022-11-02T21:46:13.215Z,11.51
2022-11-02T21:56:16.247Z,11.60
2022-11-02T22:06:16.265Z,11.67
2022-11-02T22:16:16.258Z,11.73
2022-11-02T22:26:16.208Z,11.81
2022-11-02T22:36:16.262Z,11.90
2022-11-02T22:46:16.252Z,11.97
2022-11-02T22:56:16.307Z,12.00
2022-11-02T23:06:16.281Z,11.98
2022-11-02T23:16:16.315Z,11.93
2022-11-02T23:26:16.321Z,11.84
2022-11-02T23:36:16.280Z,11.69
2022-11-02T23:46:16.365Z,11.52
2022-11-02T23:56:16.358Z,11.40
